sensor_id;sensor_type;location;lat;lon;timestamp;P1;durP1;ratioP1;P2;durP2;ratioP2
57107;SDS011;42987;52.916;6.542;2023-03-03T00:01:28;86.83;;;44.53;;
57107;SDS011;42987;52.916;6.542;2023-03-03T00:03:56;84.40;;;43.03;;
57107;SDS011;42987;52.916;6.542;2023-03-03T00:06:22;75.63;;;41.63;;
57107;SDS011;42987;52.916;6.542;2023-03-03T00:08:49;77.73;;;41.80;;
57107;SDS011;42987;52.916;6.542;2023-03-03T00:11:15;74.53;;;40.30;;
57107;SDS011;42987;52.916;6.542;2023-03-03T00:13:49;79.17;;;41.20;;
57107;SDS011;42987;52.916;6.542;2023-03-03T00:16:34;82.10;;;41.20;;
57107;SDS011;42987;52.916;6.542;2023-03-03T00:19:11;78.37;;;39.57;;
57107;SDS011;42987;52.916;6.542;2023-03-03T00:21:40;77.13;;;39.33;;
57107;SDS011;42987;52.916;6.542;2023-03-03T00:27:09;80.93;;;39.37;;
57107;SDS011;42987;52.916;6.542;2023-03-03T00:29:59;85.17;;;40.83;;
57107;SDS011;42987;52.916;6.542;2023-03-03T00:35:25;85.30;;;40.37;;
57107;SDS011;42987;52.916;6.542;2023-03-03T00:37:58;78.37;;;39.57;;
57107;SDS011;42987;52.916;6.542;2023-03-03T00:40:32;90.80;;;39.87;;
57107;SDS011;42987;52.916;6.542;2023-03-03T00:43:01;96.47;;;42.67;;
57107;SDS011;42987;52.916;6.542;2023-03-03T00:45:48;104.63;;;41.40;;
57107;SDS011;42987;52.916;6.542;2023-03-03T00:48:18;95.07;;;41.27;;
57107;SDS011;42987;52.916;6.542;2023-03-03T00:50:51;98.23;;;41.40;;
57107;SDS011;42987;52.916;6.542;2023-03-03T00:53:18;129.77;;;42.80;;
57107;SDS011;42987;52.916;6.542;2023-03-03T00:55:46;103.07;;;42.57;;
57107;SDS011;42987;52.916;6.542;2023-03-03T00:58:17;90.07;;;39.33;;
57107;SDS011;42987;52.916;6.542;2023-03-03T01:00:49;103.80;;;41.40;;
57107;SDS011;42987;52.916;6.542;2023-03-03T01:03:17;104.00;;;41.33;;
57107;SDS011;42987;52.916;6.542;2023-03-03T01:05:45;109.93;;;42.47;;
57107;SDS011;42987;52.916;6.542;2023-03-03T01:08:12;124.97;;;45.43;;
57107;SDS011;42987;52.916;6.542;2023-03-03T01:10:43;157.35;;;47.10;;
57107;SDS011;42987;52.916;6.542;2023-03-03T01:13:15;148.63;;;45.73;;
57107;SDS011;42987;52.916;6.542;2023-03-03T01:15:42;136.33;;;42.67;;
57107;SDS011;42987;52.916;6.542;2023-03-03T01:18:08;112.10;;;41.73;;
57107;SDS011;42987;52.916;6.542;2023-03-03T01:20:35;271.67;;;56.45;;
57107;SDS011;42987;52.916;6.542;2023-03-03T01:23:02;158.43;;;45.10;;
57107;SDS011;42987;52.916;6.542;2023-03-03T01:25:28;194.90;;;46.90;;
57107;SDS011;42987;52.916;6.542;2023-03-03T01:27:55;158.32;;;45.95;;
57107;SDS011;42987;52.916;6.542;2023-03-03T01:30:21;193.35;;;46.10;;
57107;SDS011;42987;52.916;6.542;2023-03-03T01:32:48;120.07;;;43.80;;
57107;SDS011;42987;52.916;6.542;2023-03-03T01:35:13;320.43;;;61.40;;
57107;SDS011;42987;52.916;6.542;2023-03-03T01:37:39;226.63;;;50.50;;
57107;SDS011;42987;52.916;6.542;2023-03-03T01:40:06;155.27;;;44.43;;
57107;SDS011;42987;52.916;6.542;2023-03-03T01:42:51;200.47;;;47.73;;
57107;SDS011;42987;52.916;6.542;2023-03-03T01:45:22;108.30;;;37.60;;
57107;SDS011;42987;52.916;6.542;2023-03-03T01:50:45;125.90;;;39.40;;
57107;SDS011;42987;52.916;6.542;2023-03-03T01:53:27;115.17;;;37.50;;
57107;SDS011;42987;52.916;6.542;2023-03-03T01:56:02;154.07;;;40.57;;
57107;SDS011;42987;52.916;6.542;2023-03-03T01:58:36;147.88;;;40.00;;
57107;SDS011;42987;52.916;6.542;2023-03-03T02:01:16;146.43;;;39.55;;
57107;SDS011;42987;52.916;6.542;2023-03-03T02:03:48;113.03;;;39.67;;
57107;SDS011;42987;52.916;6.542;2023-03-03T02:06:16;139.23;;;39.07;;
57107;SDS011;42987;52.916;6.542;2023-03-03T02:08:47;133.98;;;38.92;;
57107;SDS011;42987;52.916;6.542;2023-03-03T02:11:16;123.13;;;39.88;;
57107;SDS011;42987;52.916;6.542;2023-03-03T02:13:43;176.20;;;43.60;;
57107;SDS011;42987;52.916;6.542;2023-03-03T02:16:09;106.70;;;37.95;;
57107;SDS011;42987;52.916;6.542;2023-03-03T02:18:34;188.40;;;42.40;;
57107;SDS011;42987;52.916;6.542;2023-03-03T02:26:34;148.43;;;40.40;;
57107;SDS011;42987;52.916;6.542;2023-03-03T02:29:03;196.45;;;47.15;;
57107;SDS011;42987;52.916;6.542;2023-03-03T02:31:29;185.17;;;45.63;;
57107;SDS011;42987;52.916;6.542;2023-03-03T02:33:56;174.55;;;44.15;;
57107;SDS011;42987;52.916;6.542;2023-03-03T02:36:24;329.52;;;62.22;;
57107;SDS011;42987;52.916;6.542;2023-03-03T02:44:18;96.83;;;35.50;;
57107;SDS011;42987;52.916;6.542;2023-03-03T02:46:47;327.20;;;58.10;;
57107;SDS011;42987;52.916;6.542;2023-03-03T02:49:16;184.38;;;43.92;;
57107;SDS011;42987;52.916;6.542;2023-03-03T02:51:44;262.92;;;53.80;;
57107;SDS011;42987;52.916;6.542;2023-03-03T02:54:10;153.02;;;43.40;;
57107;SDS011;42987;52.916;6.542;2023-03-03T02:56:37;189.93;;;45.13;;
57107;SDS011;42987;52.916;6.542;2023-03-03T02:59:04;227.52;;;46.88;;
57107;SDS011;42987;52.916;6.542;2023-03-03T03:01:30;469.20;;;74.22;;
57107;SDS011;42987;52.916;6.542;2023-03-03T03:04:03;249.93;;;49.60;;
57107;SDS011;42987;52.916;6.542;2023-03-03T03:06:31;167.85;;;42.08;;
57107;SDS011;42987;52.916;6.542;2023-03-03T03:08:58;248.60;;;51.97;;
57107;SDS011;42987;52.916;6.542;2023-03-03T03:11:25;165.73;;;43.10;;
57107;SDS011;42987;52.916;6.542;2023-03-03T03:13:51;218.30;;;47.53;;
57107;SDS011;42987;52.916;6.542;2023-03-03T03:16:17;182.27;;;45.90;;
57107;SDS011;42987;52.916;6.542;2023-03-03T03:18:43;151.43;;;41.23;;
57107;SDS011;42987;52.916;6.542;2023-03-03T03:21:10;210.33;;;47.07;;
57107;SDS011;42987;52.916;6.542;2023-03-03T03:23:38;271.67;;;52.77;;
57107;SDS011;42987;52.916;6.542;2023-03-03T03:26:05;242.27;;;52.13;;
57107;SDS011;42987;52.916;6.542;2023-03-03T03:28:34;282.02;;;52.75;;
57107;SDS011;42987;52.916;6.542;2023-03-03T03:31:00;262.20;;;49.90;;
57107;SDS011;42987;52.916;6.542;2023-03-03T03:33:27;127.35;;;36.72;;
57107;SDS011;42987;52.916;6.542;2023-03-03T03:35:53;140.90;;;38.92;;
57107;SDS011;42987;52.916;6.542;2023-03-03T03:38:23;144.23;;;39.25;;
57107;SDS011;42987;52.916;6.542;2023-03-03T03:40:54;238.00;;;50.30;;
57107;SDS011;42987;52.916;6.542;2023-03-03T03:43:23;171.60;;;43.93;;
57107;SDS011;42987;52.916;6.542;2023-03-03T03:45:50;425.20;;;70.68;;
57107;SDS011;42987;52.916;6.542;2023-03-03T03:48:16;230.60;;;49.40;;
57107;SDS011;42987;52.916;6.542;2023-03-03T03:50:44;312.10;;;56.03;;
57107;SDS011;42987;52.916;6.542;2023-03-03T03:53:14;162.05;;;42.45;;
57107;SDS011;42987;52.916;6.542;2023-03-03T03:55:41;452.98;;;73.57;;
57107;SDS011;42987;52.916;6.542;2023-03-03T03:58:12;388.00;;;69.97;;
57107;SDS011;42987;52.916;6.542;2023-03-03T04:00:40;200.80;;;45.50;;
57107;SDS011;42987;52.916;6.542;2023-03-03T04:03:06;236.83;;;45.27;;
57107;SDS011;42987;52.916;6.542;2023-03-03T04:05:33;165.73;;;37.03;;
57107;SDS011;42987;52.916;6.542;2023-03-03T04:07:58;261.10;;;48.08;;
57107;SDS011;42987;52.916;6.542;2023-03-03T04:10:24;214.45;;;41.13;;
57107;SDS011;42987;52.916;6.542;2023-03-03T04:12:50;295.63;;;53.13;;
57107;SDS011;42987;52.916;6.542;2023-03-03T04:15:16;191.05;;;39.00;;
57107;SDS011;42987;52.916;6.542;2023-03-03T04:17:42;327.10;;;53.07;;
57107;SDS011;42987;52.916;6.542;2023-03-03T04:20:09;190.17;;;39.33;;
57107;SDS011;42987;52.916;6.542;2023-03-03T04:22:38;108.20;;;31.73;;
57107;SDS011;42987;52.916;6.542;2023-03-03T04:25:04;228.27;;;41.78;;
57107;SDS011;42987;52.916;6.542;2023-03-03T04:27:35;144.00;;;33.13;;
57107;SDS011;42987;52.916;6.542;2023-03-03T04:30:02;364.15;;;54.45;;
57107;SDS011;42987;52.916;6.542;2023-03-03T04:32:29;105.53;;;31.77;;
57107;SDS011;42987;52.916;6.542;2023-03-03T04:34:57;207.57;;;39.77;;
57107;SDS011;42987;52.916;6.542;2023-03-03T04:37:23;110.63;;;29.80;;
57107;SDS011;42987;52.916;6.542;2023-03-03T04:39:53;186.33;;;38.13;;
57107;SDS011;42987;52.916;6.542;2023-03-03T04:42:19;119.23;;;33.47;;
57107;SDS011;42987;52.916;6.542;2023-03-03T04:44:47;148.77;;;33.17;;
57107;SDS011;42987;52.916;6.542;2023-03-03T04:47:17;167.87;;;34.67;;
57107;SDS011;42987;52.916;6.542;2023-03-03T04:49:43;143.13;;;31.45;;
57107;SDS011;42987;52.916;6.542;2023-03-03T04:52:08;188.83;;;34.30;;
57107;SDS011;42987;52.916;6.542;2023-03-03T04:54:37;148.00;;;31.17;;
57107;SDS011;42987;52.916;6.542;2023-03-03T04:57:03;157.50;;;35.47;;
57107;SDS011;42987;52.916;6.542;2023-03-03T04:59:29;158.63;;;32.17;;
57107;SDS011;42987;52.916;6.542;2023-03-03T05:01:55;145.43;;;31.83;;
57107;SDS011;42987;52.916;6.542;2023-03-03T05:04:21;131.93;;;30.95;;
57107;SDS011;42987;52.916;6.542;2023-03-03T05:06:47;164.93;;;33.33;;
57107;SDS011;42987;52.916;6.542;2023-03-03T05:09:15;151.27;;;33.27;;
57107;SDS011;42987;52.916;6.542;2023-03-03T05:11:41;122.57;;;29.90;;
57107;SDS011;42987;52.916;6.542;2023-03-03T05:14:08;186.30;;;34.70;;
57107;SDS011;42987;52.916;6.542;2023-03-03T05:16:34;153.97;;;32.17;;
57107;SDS011;42987;52.916;6.542;2023-03-03T05:19:00;158.70;;;31.10;;
57107;SDS011;42987;52.916;6.542;2023-03-03T05:21:26;109.15;;;29.30;;
57107;SDS011;42987;52.916;6.542;2023-03-03T05:23:52;153.10;;;30.70;;
57107;SDS011;42987;52.916;6.542;2023-03-03T05:26:18;123.57;;;27.63;;
57107;SDS011;42987;52.916;6.542;2023-03-03T05:28:43;110.60;;;27.23;;
57107;SDS011;42987;52.916;6.542;2023-03-03T05:31:09;142.47;;;30.80;;
57107;SDS011;42987;52.916;6.542;2023-03-03T05:33:35;159.50;;;32.57;;
57107;SDS011;42987;52.916;6.542;2023-03-03T05:36:02;150.68;;;29.77;;
57107;SDS011;42987;52.916;6.542;2023-03-03T05:38:28;136.83;;;30.97;;
57107;SDS011;42987;52.916;6.542;2023-03-03T05:40:54;327.43;;;43.73;;
57107;SDS011;42987;52.916;6.542;2023-03-03T05:43:20;406.98;;;53.60;;
57107;SDS011;42987;52.916;6.542;2023-03-03T05:45:46;305.85;;;42.97;;
57107;SDS011;42987;52.916;6.542;2023-03-03T05:48:12;266.30;;;39.57;;
57107;SDS011;42987;52.916;6.542;2023-03-03T05:50:37;286.10;;;39.83;;
57107;SDS011;42987;52.916;6.542;2023-03-03T05:53:04;393.73;;;49.33;;
57107;SDS011;42987;52.916;6.542;2023-03-03T05:55:30;402.60;;;51.47;;
57107;SDS011;42987;52.916;6.542;2023-03-03T05:57:56;268.08;;;37.50;;
57107;SDS011;42987;52.916;6.542;2023-03-03T06:00:21;286.60;;;38.90;;
57107;SDS011;42987;52.916;6.542;2023-03-03T06:02:47;85.93;;;23.63;;
57107;SDS011;42987;52.916;6.542;2023-03-03T06:05:13;203.77;;;34.13;;
57107;SDS011;42987;52.916;6.542;2023-03-03T06:07:39;252.95;;;34.58;;
57107;SDS011;42987;52.916;6.542;2023-03-03T06:10:05;295.45;;;39.45;;
57107;SDS011;42987;52.916;6.542;2023-03-03T06:12:31;300.85;;;42.08;;
57107;SDS011;42987;52.916;6.542;2023-03-03T06:14:57;393.30;;;51.60;;
57107;SDS011;42987;52.916;6.542;2023-03-03T06:17:23;376.77;;;50.93;;
57107;SDS011;42987;52.916;6.542;2023-03-03T06:19:50;217.10;;;30.33;;
57107;SDS011;42987;52.916;6.542;2023-03-03T06:22:16;359.13;;;46.53;;
57107;SDS011;42987;52.916;6.542;2023-03-03T06:24:42;317.13;;;41.73;;
57107;SDS011;42987;52.916;6.542;2023-03-03T06:27:07;363.27;;;50.13;;
57107;SDS011;42987;52.916;6.542;2023-03-03T06:29:34;248.77;;;27.20;;
57107;SDS011;42987;52.916;6.542;2023-03-03T06:32:00;76.20;;;17.80;;
57107;SDS011;42987;52.916;6.542;2023-03-03T06:34:26;111.10;;;21.38;;
57107;SDS011;42987;52.916;6.542;2023-03-03T06:36:51;289.67;;;40.42;;
57107;SDS011;42987;52.916;6.542;2023-03-03T06:39:17;323.80;;;43.57;;
57107;SDS011;42987;52.916;6.542;2023-03-03T06:41:43;380.87;;;49.70;;
57107;SDS011;42987;52.916;6.542;2023-03-03T06:44:09;99.27;;;20.57;;
57107;SDS011;42987;52.916;6.542;2023-03-03T06:46:36;320.07;;;42.03;;
57107;SDS011;42987;52.916;6.542;2023-03-03T06:49:02;330.13;;;46.17;;
57107;SDS011;42987;52.916;6.542;2023-03-03T06:51:35;243.38;;;32.92;;
57107;SDS011;42987;52.916;6.542;2023-03-03T06:54:14;340.97;;;44.80;;
57107;SDS011;42987;52.916;6.542;2023-03-03T06:56:42;263.07;;;42.43;;
57107;SDS011;42987;52.916;6.542;2023-03-03T07:01:45;323.07;;;43.87;;
57107;SDS011;42987;52.916;6.542;2023-03-03T07:04:34;119.33;;;23.20;;
57107;SDS011;42987;52.916;6.542;2023-03-03T07:07:04;247.77;;;37.63;;
57107;SDS011;42987;52.916;6.542;2023-03-03T07:09:37;251.10;;;38.57;;
57107;SDS011;42987;52.916;6.542;2023-03-03T07:12:09;197.63;;;32.13;;
57107;SDS011;42987;52.916;6.542;2023-03-03T07:14:41;231.13;;;32.93;;
57107;SDS011;42987;52.916;6.542;2023-03-03T07:17:12;111.93;;;21.77;;
57107;SDS011;42987;52.916;6.542;2023-03-03T07:19:41;78.50;;;20.00;;
57107;SDS011;42987;52.916;6.542;2023-03-03T07:22:18;114.50;;;22.13;;
57107;SDS011;42987;52.916;6.542;2023-03-03T07:24:47;78.20;;;18.90;;
57107;SDS011;42987;52.916;6.542;2023-03-03T07:29:46;179.23;;;30.87;;
57107;SDS011;42987;52.916;6.542;2023-03-03T07:32:20;215.63;;;33.20;;
57107;SDS011;42987;52.916;6.542;2023-03-03T07:35:03;250.07;;;42.27;;
57107;SDS011;42987;52.916;6.542;2023-03-03T07:40:58;164.27;;;24.97;;
57107;SDS011;42987;52.916;6.542;2023-03-03T07:48:40;118.00;;;21.57;;
57107;SDS011;42987;52.916;6.542;2023-03-03T07:51:26;582.53;;;67.47;;
57107;SDS011;42987;52.916;6.542;2023-03-03T07:53:57;141.10;;;28.17;;
57107;SDS011;42987;52.916;6.542;2023-03-03T07:56:39;65.33;;;18.03;;
57107;SDS011;42987;52.916;6.542;2023-03-03T07:59:21;18.00;;;13.70;;
57107;SDS011;42987;52.916;6.542;2023-03-03T08:01:58;53.20;;;18.27;;
57107;SDS011;42987;52.916;6.542;2023-03-03T08:04:28;57.27;;;18.60;;
57107;SDS011;42987;52.916;6.542;2023-03-03T08:07:13;115.07;;;32.27;;
57107;SDS011;42987;52.916;6.542;2023-03-03T08:09:43;140.10;;;34.53;;
57107;SDS011;42987;52.916;6.542;2023-03-03T08:14:40;175.70;;;34.47;;
57107;SDS011;42987;52.916;6.542;2023-03-03T08:17:13;184.23;;;34.53;;
57107;SDS011;42987;52.916;6.542;2023-03-03T08:19:50;137.47;;;22.93;;
57107;SDS011;42987;52.916;6.542;2023-03-03T08:22:18;37.83;;;15.80;;
57107;SDS011;42987;52.916;6.542;2023-03-03T08:24:55;89.43;;;25.27;;
57107;SDS011;42987;52.916;6.542;2023-03-03T08:27:20;69.17;;;20.03;;
57107;SDS011;42987;52.916;6.542;2023-03-03T08:29:46;151.77;;;30.03;;
57107;SDS011;42987;52.916;6.542;2023-03-03T08:32:14;138.03;;;27.87;;
57107;SDS011;42987;52.916;6.542;2023-03-03T08:34:40;83.80;;;17.95;;
57107;SDS011;42987;52.916;6.542;2023-03-03T08:37:06;128.83;;;24.00;;
57107;SDS011;42987;52.916;6.542;2023-03-03T08:39:32;92.68;;;22.23;;
57107;SDS011;42987;52.916;6.542;2023-03-03T08:41:57;74.20;;;22.30;;
57107;SDS011;42987;52.916;6.542;2023-03-03T08:44:23;70.97;;;23.27;;
57107;SDS011;42987;52.916;6.542;2023-03-03T08:46:50;66.67;;;21.67;;
57107;SDS011;42987;52.916;6.542;2023-03-03T08:49:16;102.73;;;25.70;;
57107;SDS011;42987;52.916;6.542;2023-03-03T08:51:42;87.67;;;25.50;;
57107;SDS011;42987;52.916;6.542;2023-03-03T08:54:08;58.20;;;22.55;;
57107;SDS011;42987;52.916;6.542;2023-03-03T08:56:34;33.22;;;20.30;;
57107;SDS011;42987;52.916;6.542;2023-03-03T08:59:00;42.15;;;20.80;;
57107;SDS011;42987;52.916;6.542;2023-03-03T09:01:26;49.47;;;23.83;;
57107;SDS011;42987;52.916;6.542;2023-03-03T09:03:52;38.67;;;20.53;;
57107;SDS011;42987;52.916;6.542;2023-03-03T09:06:17;36.58;;;19.48;;
57107;SDS011;42987;52.916;6.542;2023-03-03T09:08:43;46.45;;;21.85;;
57107;SDS011;42987;52.916;6.542;2023-03-03T09:11:13;32.25;;;17.88;;
57107;SDS011;42987;52.916;6.542;2023-03-03T09:13:39;46.15;;;20.63;;
57107;SDS011;42987;52.916;6.542;2023-03-03T09:16:14;54.67;;;24.13;;
57107;SDS011;42987;52.916;6.542;2023-03-03T09:18:40;24.63;;;19.13;;
57107;SDS011;42987;52.916;6.542;2023-03-03T09:21:21;25.73;;;18.35;;
57107;SDS011;42987;52.916;6.542;2023-03-03T09:23:59;19.70;;;14.77;;
57107;SDS011;42987;52.916;6.542;2023-03-03T09:34:52;18.85;;;15.55;;
57107;SDS011;42987;52.916;6.542;2023-03-03T09:36:59;25.93;;;17.60;;
57107;SDS011;42987;52.916;6.542;2023-03-03T09:39:25;19.90;;;16.75;;
57107;SDS011;42987;52.916;6.542;2023-03-03T09:42:18;15.98;;;14.30;;
57107;SDS011;42987;52.916;6.542;2023-03-03T09:52:51;19.02;;;15.15;;
57107;SDS011;42987;52.916;6.542;2023-03-03T10:01:03;19.33;;;15.43;;
57107;SDS011;42987;52.916;6.542;2023-03-03T10:03:44;15.93;;;13.95;;
57107;SDS011;42987;52.916;6.542;2023-03-03T10:06:35;13.00;;;11.68;;
57107;SDS011;42987;52.916;6.542;2023-03-03T10:09:27;13.70;;;11.45;;
57107;SDS011;42987;52.916;6.542;2023-03-03T10:40:07;13.85;;;10.82;;
57107;SDS011;42987;52.916;6.542;2023-03-03T10:42:48;10.27;;;8.80;;
57107;SDS011;42987;52.916;6.542;2023-03-03T10:56:53;12.18;;;9.65;;
57107;SDS011;42987;52.916;6.542;2023-03-03T11:05:17;9.57;;;8.35;;
57107;SDS011;42987;52.916;6.542;2023-03-03T11:07:45;11.95;;;7.80;;
57107;SDS011;42987;52.916;6.542;2023-03-03T11:10:23;10.32;;;8.07;;
57107;SDS011;42987;52.916;6.542;2023-03-03T11:18:24;9.82;;;7.85;;
57107;SDS011;42987;52.916;6.542;2023-03-03T11:32:31;10.65;;;6.00;;
57107;SDS011;42987;52.916;6.542;2023-03-03T11:35:19;9.30;;;5.15;;
57107;SDS011;42987;52.916;6.542;2023-03-03T11:41:05;8.18;;;4.30;;
57107;SDS011;42987;52.916;6.542;2023-03-03T11:43:52;5.28;;;3.63;;
57107;SDS011;42987;52.916;6.542;2023-03-03T11:46:28;6.68;;;3.30;;
57107;SDS011;42987;52.916;6.542;2023-03-03T11:49:19;5.95;;;3.28;;
57107;SDS011;42987;52.916;6.542;2023-03-03T11:52:21;4.43;;;2.78;;
57107;SDS011;42987;52.916;6.542;2023-03-03T12:00:36;7.35;;;3.08;;
57107;SDS011;42987;52.916;6.542;2023-03-03T12:19:17;4.25;;;1.80;;
57107;SDS011;42987;52.916;6.542;2023-03-03T12:40:33;8.32;;;4.53;;
57107;SDS011;42987;52.916;6.542;2023-03-03T12:45:50;7.07;;;2.60;;
57107;SDS011;42987;52.916;6.542;2023-03-03T12:48:36;9.18;;;4.80;;
57107;SDS011;42987;52.916;6.542;2023-03-03T12:54:20;4.22;;;1.95;;
57107;SDS011;42987;52.916;6.542;2023-03-03T12:56:54;5.55;;;1.50;;
57107;SDS011;42987;52.916;6.542;2023-03-03T13:02:46;4.35;;;1.58;;
57107;SDS011;42987;52.916;6.542;2023-03-03T13:07:56;4.78;;;2.03;;
57107;SDS011;42987;52.916;6.542;2023-03-03T13:10:59;6.43;;;1.98;;
57107;SDS011;42987;52.916;6.542;2023-03-03T13:13:32;4.95;;;2.00;;
57107;SDS011;42987;52.916;6.542;2023-03-03T13:16:21;5.72;;;1.83;;
57107;SDS011;42987;52.916;6.542;2023-03-03T13:21:41;5.43;;;1.73;;
57107;SDS011;42987;52.916;6.542;2023-03-03T13:24:44;3.85;;;1.23;;
57107;SDS011;42987;52.916;6.542;2023-03-03T13:27:36;4.70;;;1.27;;
57107;SDS011;42987;52.916;6.542;2023-03-03T13:32:48;2.85;;;1.33;;
57107;SDS011;42987;52.916;6.542;2023-03-03T13:37:57;5.20;;;1.40;;
57107;SDS011;42987;52.916;6.542;2023-03-03T13:40:26;5.68;;;1.55;;
57107;SDS011;42987;52.916;6.542;2023-03-03T13:43:03;6.88;;;1.92;;
57107;SDS011;42987;52.916;6.542;2023-03-03T13:45:57;5.90;;;1.50;;
57107;SDS011;42987;52.916;6.542;2023-03-03T13:48:49;4.38;;;1.70;;
57107;SDS011;42987;52.916;6.542;2023-03-03T13:57:26;5.22;;;1.98;;
57107;SDS011;42987;52.916;6.542;2023-03-03T14:06:14;5.07;;;1.67;;
57107;SDS011;42987;52.916;6.542;2023-03-03T14:19:30;5.72;;;1.40;;
57107;SDS011;42987;52.916;6.542;2023-03-03T14:27:38;6.80;;;1.90;;
57107;SDS011;42987;52.916;6.542;2023-03-03T14:35:35;7.10;;;1.52;;
57107;SDS011;42987;52.916;6.542;2023-03-03T14:38:12;6.25;;;1.42;;
57107;SDS011;42987;52.916;6.542;2023-03-03T14:40:38;7.72;;;1.85;;
57107;SDS011;42987;52.916;6.542;2023-03-03T14:45:50;6.22;;;1.42;;
57107;SDS011;42987;52.916;6.542;2023-03-03T14:48:21;7.00;;;2.17;;
57107;SDS011;42987;52.916;6.542;2023-03-03T15:01:43;10.02;;;2.45;;
57107;SDS011;42987;52.916;6.542;2023-03-03T15:04:22;10.40;;;2.38;;
57107;SDS011;42987;52.916;6.542;2023-03-03T15:06:53;10.20;;;2.70;;
57107;SDS011;42987;52.916;6.542;2023-03-03T15:15:06;11.07;;;2.67;;
57107;SDS011;42987;52.916;6.542;2023-03-03T15:19:50;10.50;;;2.47;;
57107;SDS011;42987;52.916;6.542;2023-03-03T15:25:23;12.77;;;3.28;;
57107;SDS011;42987;52.916;6.542;2023-03-03T15:30:45;10.35;;;2.78;;
57107;SDS011;42987;52.916;6.542;2023-03-03T15:36:09;11.73;;;3.30;;
57107;SDS011;42987;52.916;6.542;2023-03-03T15:38:45;14.95;;;3.17;;
57107;SDS011;42987;52.916;6.542;2023-03-03T15:52:47;14.80;;;3.88;;
57107;SDS011;42987;52.916;6.542;2023-03-03T15:55:44;15.57;;;4.00;;
57107;SDS011;42987;52.916;6.542;2023-03-03T16:01:04;19.50;;;5.10;;
57107;SDS011;42987;52.916;6.542;2023-03-03T16:04:21;16.30;;;4.78;;
57107;SDS011;42987;52.916;6.542;2023-03-03T16:12:02;18.58;;;4.85;;
57107;SDS011;42987;52.916;6.542;2023-03-03T16:14:36;20.48;;;4.38;;
57107;SDS011;42987;52.916;6.542;2023-03-03T16:20:28;15.52;;;3.72;;
57107;SDS011;42987;52.916;6.542;2023-03-03T16:28:49;16.45;;;4.65;;
57107;SDS011;42987;52.916;6.542;2023-03-03T16:31:25;19.25;;;4.88;;
57107;SDS011;42987;52.916;6.542;2023-03-03T16:39:20;17.02;;;4.20;;
57107;SDS011;42987;52.916;6.542;2023-03-03T16:47:37;21.73;;;4.88;;
57107;SDS011;42987;52.916;6.542;2023-03-03T16:55:31;16.35;;;4.07;;
57107;SDS011;42987;52.916;6.542;2023-03-03T17:01:08;14.95;;;4.40;;
57107;SDS011;42987;52.916;6.542;2023-03-03T17:06:15;21.23;;;5.10;;
57107;SDS011;42987;52.916;6.542;2023-03-03T17:17:41;19.08;;;5.57;;
57107;SDS011;42987;52.916;6.542;2023-03-03T17:40:45;23.55;;;5.00;;
57107;SDS011;42987;52.916;6.542;2023-03-03T17:46:13;20.48;;;5.13;;
57107;SDS011;42987;52.916;6.542;2023-03-03T17:49:19;22.98;;;4.72;;
57107;SDS011;42987;52.916;6.542;2023-03-03T17:57:33;19.65;;;4.72;;
57107;SDS011;42987;52.916;6.542;2023-03-03T18:05:36;27.35;;;5.45;;
57107;SDS011;42987;52.916;6.542;2023-03-03T18:13:43;25.52;;;6.15;;
57107;SDS011;42987;52.916;6.542;2023-03-03T18:25:10;21.27;;;5.53;;
57107;SDS011;42987;52.916;6.542;2023-03-03T18:27:41;23.90;;;5.30;;
57107;SDS011;42987;52.916;6.542;2023-03-03T18:35:40;23.83;;;5.50;;
57107;SDS011;42987;52.916;6.542;2023-03-03T18:51:45;27.98;;;7.20;;
57107;SDS011;42987;52.916;6.542;2023-03-03T18:57:10;29.35;;;8.43;;
57107;SDS011;42987;52.916;6.542;2023-03-03T18:59:48;30.40;;;10.23;;
57107;SDS011;42987;52.916;6.542;2023-03-03T19:05:04;33.22;;;14.23;;
57107;SDS011;42987;52.916;6.542;2023-03-03T19:07:55;33.75;;;12.75;;
57107;SDS011;42987;52.916;6.542;2023-03-03T19:13:40;33.15;;;9.88;;
57107;SDS011;42987;52.916;6.542;2023-03-03T19:16:12;27.65;;;8.00;;
57107;SDS011;42987;52.916;6.542;2023-03-03T19:31:57;31.00;;;10.57;;
57107;SDS011;42987;52.916;6.542;2023-03-03T19:34:44;24.73;;;7.18;;
57107;SDS011;42987;52.916;6.542;2023-03-03T19:49:41;30.05;;;10.15;;
57107;SDS011;42987;52.916;6.542;2023-03-03T20:03:13;24.35;;;7.30;;
57107;SDS011;42987;52.916;6.542;2023-03-03T20:11:16;27.23;;;9.73;;
57107;SDS011;42987;52.916;6.542;2023-03-03T20:16:38;20.75;;;6.40;;
57107;SDS011;42987;52.916;6.542;2023-03-03T20:21:42;25.83;;;8.05;;
57107;SDS011;42987;52.916;6.542;2023-03-03T20:30:05;25.50;;;5.65;;
57107;SDS011;42987;52.916;6.542;2023-03-03T20:53:31;23.25;;;6.13;;
57107;SDS011;42987;52.916;6.542;2023-03-03T20:58:36;23.23;;;5.22;;
57107;SDS011;42987;52.916;6.542;2023-03-03T21:01:14;20.65;;;6.35;;
57107;SDS011;42987;52.916;6.542;2023-03-03T21:03:48;24.52;;;8.07;;
57107;SDS011;42987;52.916;6.542;2023-03-03T21:06:15;27.95;;;10.07;;
57107;SDS011;42987;52.916;6.542;2023-03-03T21:08:50;27.38;;;7.82;;
57107;SDS011;42987;52.916;6.542;2023-03-03T21:13:54;24.52;;;6.40;;
57107;SDS011;42987;52.916;6.542;2023-03-03T21:18:57;24.13;;;6.10;;
57107;SDS011;42987;52.916;6.542;2023-03-03T21:21:27;22.05;;;5.80;;
57107;SDS011;42987;52.916;6.542;2023-03-03T21:23:54;21.85;;;5.50;;
57107;SDS011;42987;52.916;6.542;2023-03-03T21:32:08;20.77;;;4.78;;
57107;SDS011;42987;52.916;6.542;2023-03-03T21:34:38;22.65;;;4.78;;
57107;SDS011;42987;52.916;6.542;2023-03-03T21:37:06;25.92;;;5.32;;
57107;SDS011;42987;52.916;6.542;2023-03-03T21:42:13;17.02;;;5.07;;
57107;SDS011;42987;52.916;6.542;2023-03-03T21:44:49;20.33;;;5.68;;
57107;SDS011;42987;52.916;6.542;2023-03-03T21:49:46;21.00;;;6.18;;
57107;SDS011;42987;52.916;6.542;2023-03-03T21:52:14;25.42;;;6.25;;
57107;SDS011;42987;52.916;6.542;2023-03-03T21:54:43;19.17;;;5.25;;
57107;SDS011;42987;52.916;6.542;2023-03-03T21:57:10;19.73;;;4.95;;
57107;SDS011;42987;52.916;6.542;2023-03-03T21:59:36;19.40;;;4.90;;
57107;SDS011;42987;52.916;6.542;2023-03-03T22:02:03;19.67;;;5.60;;
57107;SDS011;42987;52.916;6.542;2023-03-03T22:04:29;17.52;;;4.10;;
57107;SDS011;42987;52.916;6.542;2023-03-03T22:06:55;23.63;;;4.82;;
57107;SDS011;42987;52.916;6.542;2023-03-03T22:09:21;18.70;;;4.18;;
57107;SDS011;42987;52.916;6.542;2023-03-03T22:11:47;15.88;;;4.20;;
57107;SDS011;42987;52.916;6.542;2023-03-03T22:14:13;13.60;;;3.30;;
57107;SDS011;42987;52.916;6.542;2023-03-03T22:16:39;16.52;;;3.78;;
57107;SDS011;42987;52.916;6.542;2023-03-03T22:19:05;20.00;;;4.13;;
57107;SDS011;42987;52.916;6.542;2023-03-03T22:21:33;17.60;;;3.85;;
57107;SDS011;42987;52.916;6.542;2023-03-03T22:24:00;18.55;;;4.03;;
57107;SDS011;42987;52.916;6.542;2023-03-03T22:26:26;17.80;;;4.32;;
57107;SDS011;42987;52.916;6.542;2023-03-03T22:28:52;19.15;;;4.97;;
57107;SDS011;42987;52.916;6.542;2023-03-03T22:31:17;19.02;;;3.88;;
57107;SDS011;42987;52.916;6.542;2023-03-03T22:33:44;20.85;;;4.63;;
57107;SDS011;42987;52.916;6.542;2023-03-03T22:36:12;16.42;;;3.63;;
57107;SDS011;42987;52.916;6.542;2023-03-03T22:38:38;19.00;;;4.05;;
57107;SDS011;42987;52.916;6.542;2023-03-03T22:41:05;16.58;;;3.88;;